createdAt,value
2018-12-29T00:00:53.763Z,4.23
2018-12-29T00:01:53.954Z,4.14
2018-12-29T00:02:53.738Z,4.16
2018-12-29T00:03:53.713Z,4.13
2018-12-29T00:04:53.708Z,4.10
2018-12-29T00:05:53.707Z,4.12
2018-12-29T00:06:53.707Z,4.20
2018-12-29T00:07:53.713Z,4.16
2018-12-29T00:08:53.680Z,4.14
2018-12-29T00:09:53.677Z,4.14
2018-12-29T00:10:53.677Z,4.16
2018-12-29T00:11:53.652Z,4.14
2018-12-29T00:12:53.647Z,4.14
2018-12-29T00:13:53.662Z,4.17
2018-12-29T00:14:55.159Z,4.14
2018-12-29T00:15:53.642Z,4.08
2018-12-29T00:16:53.634Z,4.13
2018-12-29T00:17:53.655Z,4.17
2018-12-29T00:18:53.622Z,4.26
2018-12-29T00:19:53.603Z,4.22
2018-12-29T00:20:53.620Z,4.23
2018-12-29T00:21:53.589Z,4.28
2018-12-29T00:22:53.582Z,4.31
2018-12-29T00:23:53.581Z,4.31
2018-12-29T00:24:53.560Z,4.31
2018-12-29T00:25:53.563Z,4.28
2018-12-29T00:26:53.553Z,4.32
2018-12-29T00:27:53.541Z,4.26
2018-12-29T00:28:53.543Z,4.31
2018-12-29T00:29:53.543Z,4.31
2018-12-29T00:30:53.528Z,4.24
2018-12-29T00:31:53.509Z,4.32
2018-12-29T00:32:53.506Z,4.31
2018-12-29T00:33:53.510Z,4.32
2018-12-29T00:34:53.502Z,4.31
2018-12-29T00:35:53.483Z,4.26
2018-12-29T00:36:53.478Z,4.32
2018-12-29T00:37:53.486Z,4.32
2018-12-29T00:38:53.455Z,4.22
2018-12-29T00:39:53.449Z,4.31
2018-12-29T00:40:53.443Z,4.26
2018-12-29T00:41:53.441Z,4.24
2018-12-29T00:42:53.439Z,4.34
2018-12-29T00:43:53.424Z,4.30
2018-12-29T00:44:53.411Z,4.24
2018-12-29T00:45:53.434Z,4.30
2018-12-29T00:46:53.401Z,4.28
2018-12-29T00:47:53.409Z,4.31
2018-12-29T00:48:53.396Z,4.26
2018-12-29T00:49:53.378Z,4.44
2018-12-29T00:50:53.384Z,4.40
2018-12-29T00:51:53.360Z,4.26
2018-12-29T00:52:53.355Z,4.32
2018-12-29T00:53:53.339Z,4.23
2018-12-29T00:54:53.337Z,4.30
2018-12-29T00:55:53.333Z,4.28
2018-12-29T00:56:53.326Z,4.26
2018-12-29T00:57:53.321Z,4.35
2018-12-29T00:58:53.304Z,4.30
2018-12-29T00:59:53.950Z,4.34
2018-12-29T01:00:53.293Z,4.26
2018-12-29T01:01:53.290Z,4.26
2018-12-29T01:02:53.492Z,4.23
2018-12-29T01:03:53.274Z,4.35
2018-12-29T01:04:53.269Z,4.20
2018-12-29T01:05:53.272Z,4.24
2018-12-29T01:06:53.263Z,4.30
2018-12-29T01:07:53.245Z,4.31
2018-12-29T01:08:53.236Z,4.30
2018-12-29T01:09:53.228Z,4.38
2018-12-29T01:10:53.227Z,4.30
2018-12-29T01:11:53.213Z,4.30
2018-12-29T01:12:53.210Z,4.30
2018-12-29T01:13:53.209Z,4.20
2018-12-29T01:14:53.200Z,4.37
2018-12-29T01:15:53.185Z,4.28
2018-12-29T01:16:53.177Z,4.26
2018-12-29T01:17:53.184Z,4.28
2018-12-29T01:18:53.165Z,4.23
2018-12-29T01:19:53.155Z,4.37
2018-12-29T01:20:53.160Z,4.30
2018-12-29T01:21:53.137Z,4.30
2018-12-29T01:22:53.137Z,4.20
2018-12-29T01:23:53.123Z,4.24
2018-12-29T01:24:53.124Z,4.24
2018-12-29T01:25:53.116Z,4.13
2018-12-29T01:26:53.113Z,4.20
2018-12-29T01:27:53.089Z,4.12
2018-12-29T01:28:53.111Z,4.12
2018-12-29T01:29:53.084Z,4.14
2018-12-29T01:30:53.075Z,4.17
2018-12-29T01:31:53.076Z,4.06
2018-12-29T01:32:53.068Z,4.19
2018-12-29T01:33:53.061Z,4.14
2018-12-29T01:34:53.056Z,4.12
2018-12-29T01:35:53.052Z,4.14
2018-12-29T01:36:53.044Z,4.10
2018-12-29T01:37:53.030Z,4.16
2018-12-29T01:38:53.011Z,4.13
2018-12-29T01:39:53.008Z,4.19
2018-12-29T01:40:53.222Z,4.22
2018-12-29T01:41:53.003Z,4.12
2018-12-29T01:42:52.995Z,4.13
2018-12-29T01:43:52.975Z,4.10
2018-12-29T01:44:52.982Z,4.08
2018-12-29T01:45:52.984Z,4.14
2018-12-29T01:46:52.953Z,4.12
2018-12-29T01:47:52.939Z,4.10
2018-12-29T01:48:52.956Z,4.14
2018-12-29T01:49:52.936Z,4.08
2018-12-29T01:50:52.924Z,4.08
2018-12-29T01:51:52.931Z,4.13
2018-12-29T01:52:52.906Z,4.12
2018-12-29T01:53:52.896Z,4.12
2018-12-29T01:54:52.893Z,4.22
2018-12-29T01:55:52.886Z,4.12
2018-12-29T01:56:52.880Z,4.06
2018-12-29T01:57:52.889Z,4.14
2018-12-29T01:58:52.869Z,4.08
2018-12-29T01:59:52.858Z,4.17
2018-12-29T02:00:52.914Z,4.10
2018-12-29T02:01:52.852Z,4.20
2018-12-29T02:02:52.831Z,4.19
2018-12-29T02:03:52.834Z,4.13
2018-12-29T02:04:52.820Z,4.13
2018-12-29T02:05:52.814Z,4.13
2018-12-29T02:06:52.809Z,4.20
2018-12-29T02:07:52.794Z,4.14
2018-12-29T02:08:52.786Z,4.08
2018-12-29T02:09:52.794Z,4.13
2018-12-29T02:10:52.773Z,4.19
2018-12-29T02:11:52.778Z,4.08
2018-12-29T02:12:52.754Z,4.14
2018-12-29T02:13:52.767Z,4.12
2018-12-29T02:14:52.741Z,4.02
2018-12-29T02:15:52.733Z,4.04
2018-12-29T02:16:52.744Z,4.13
2018-12-29T02:17:52.722Z,4.13
2018-12-29T02:18:52.717Z,4.06
2018-12-29T02:19:52.710Z,4.06
2018-12-29T02:20:52.704Z,4.10
2018-12-29T02:21:52.687Z,4.02
2018-12-29T02:22:52.687Z,4.02
2018-12-29T02:23:52.673Z,4.01
2018-12-29T02:24:52.670Z,4.12
2018-12-29T02:25:54.228Z,4.06
2018-12-29T02:26:52.650Z,4.12
2018-12-29T02:27:52.660Z,4.04
2018-12-29T02:28:52.636Z,4.06
2018-12-29T02:29:52.643Z,4.05
2018-12-29T02:30:52.626Z,4.12
2018-12-29T02:31:52.616Z,4.06
2018-12-29T02:32:52.617Z,4.08
2018-12-29T02:33:52.601Z,4.14
2018-12-29T02:34:52.592Z,4.06
2018-12-29T02:35:52.602Z,4.08
2018-12-29T02:36:52.578Z,4.08
2018-12-29T02:37:52.574Z,4.10
2018-12-29T02:38:52.559Z,4.22
2018-12-29T02:39:52.554Z,4.12
2018-12-29T02:40:52.548Z,4.12
2018-12-29T02:41:52.565Z,4.08
2018-12-29T02:42:52.552Z,4.14
2018-12-29T02:43:52.535Z,4.20
2018-12-29T02:44:52.522Z,4.17
2018-12-29T02:45:52.523Z,4.14
2018-12-29T02:46:52.507Z,4.10
2018-12-29T02:47:52.505Z,4.12
2018-12-29T02:48:52.497Z,4.12
2018-12-29T02:49:52.480Z,4.12
2018-12-29T02:50:52.476Z,4.16
2018-12-29T02:51:52.481Z,4.12
2018-12-29T02:52:52.453Z,4.14
2018-12-29T02:53:52.462Z,4.17
2018-12-29T02:54:52.447Z,4.17
2018-12-29T02:55:52.444Z,4.16
2018-12-29T02:56:52.424Z,4.22
2018-12-29T02:57:52.434Z,4.22
2018-12-29T02:58:52.419Z,4.23
2018-12-29T02:59:52.414Z,4.24
2018-12-29T03:00:52.409Z,4.20
2018-12-29T03:01:52.381Z,4.24
2018-12-29T03:02:52.379Z,4.20
2018-12-29T03:03:52.382Z,4.20
2018-12-29T03:04:52.358Z,4.26
2018-12-29T03:05:52.354Z,4.26
2018-12-29T03:06:52.347Z,4.22
2018-12-29T03:07:52.357Z,4.26
2018-12-29T03:08:52.343Z,4.35
2018-12-29T03:09:52.338Z,4.32
2018-12-29T03:10:52.316Z,4.20
2018-12-29T03:11:52.310Z,4.22
2018-12-29T03:12:52.317Z,4.23
2018-12-29T03:13:52.310Z,4.17
2018-12-29T03:14:52.299Z,4.28
2018-12-29T03:15:52.279Z,4.37
2018-12-29T03:16:52.269Z,4.32
2018-12-29T03:17:52.269Z,4.30
2018-12-29T03:18:52.274Z,4.28
2018-12-29T03:19:52.281Z,4.31
2018-12-29T03:20:52.262Z,4.37
2018-12-29T03:21:52.247Z,4.31
2018-12-29T03:22:52.225Z,4.30
2018-12-29T03:23:52.219Z,4.32
2018-12-29T03:24:52.224Z,4.26
2018-12-29T03:25:52.205Z,4.26
2018-12-29T03:26:52.204Z,4.37
2018-12-29T03:27:52.186Z,4.24
2018-12-29T03:28:52.188Z,4.20
2018-12-29T03:29:52.179Z,4.20
2018-12-29T03:30:52.389Z,4.23
2018-12-29T03:31:52.175Z,4.17
2018-12-29T03:32:52.180Z,4.16
2018-12-29T03:33:52.161Z,4.23
2018-12-29T03:34:52.134Z,4.14
2018-12-29T03:35:52.136Z,4.13
2018-12-29T03:36:52.143Z,4.13
2018-12-29T03:37:52.125Z,4.14
2018-12-29T03:38:52.109Z,4.20
2018-12-29T03:39:52.111Z,4.12
2018-12-29T03:40:52.177Z,4.14
2018-12-29T03:41:52.084Z,4.13
2018-12-29T03:42:52.082Z,4.13
2018-12-29T03:43:52.074Z,4.08
2018-12-29T03:44:52.079Z,4.06
2018-12-29T03:45:52.066Z,4.12
2018-12-29T03:46:52.049Z,4.12
2018-12-29T03:47:52.057Z,4.13
2018-12-29T03:48:52.065Z,4.10
2018-12-29T03:49:52.030Z,4.02
2018-12-29T03:50:52.026Z,4.04
2018-12-29T03:51:52.011Z,4.06
2018-12-29T03:52:52.006Z,4.12
2018-12-29T03:53:51.993Z,4.02
2018-12-29T03:54:51.988Z,4.05
2018-12-29T03:55:51.987Z,4.06
2018-12-29T03:56:51.984Z,3.98
2018-12-29T03:57:51.968Z,4.01
2018-12-29T03:58:51.957Z,3.88
2018-12-29T03:59:51.958Z,3.88
2018-12-29T04:00:51.955Z,3.99
2018-12-29T04:01:51.939Z,3.95
2018-12-29T04:02:51.928Z,3.95
2018-12-29T04:03:51.925Z,3.92
2018-12-29T04:04:51.930Z,3.84
2018-12-29T04:05:51.911Z,3.87
2018-12-29T04:06:51.897Z,3.88
2018-12-29T04:07:51.928Z,3.87
2018-12-29T04:08:51.898Z,3.86
2018-12-29T04:09:51.871Z,3.84
2018-12-29T04:10:51.869Z,3.88
2018-12-29T04:11:51.873Z,3.91
2018-12-29T04:12:51.877Z,3.91
2018-12-29T04:13:51.861Z,3.84
2018-12-29T04:14:51.843Z,3.88
2018-12-29T04:15:57.841Z,3.98
2018-12-29T04:16:51.849Z,3.84
2018-12-29T04:17:51.822Z,3.83
2018-12-29T04:18:51.812Z,3.88
2018-12-29T04:19:51.821Z,3.84
2018-12-29T04:20:51.814Z,3.88
2018-12-29T04:21:51.786Z,3.86
2018-12-29T04:22:51.788Z,3.84
2018-12-29T04:23:51.784Z,3.83
2018-12-29T04:24:51.788Z,3.91
2018-12-29T04:25:51.750Z,3.87
2018-12-29T04:26:51.750Z,3.88
2018-12-29T04:27:51.739Z,3.91
2018-12-29T04:28:51.730Z,3.84
2018-12-29T04:29:51.725Z,3.99
2018-12-29T04:30:51.712Z,3.88
2018-12-29T04:31:51.908Z,3.94
2018-12-29T04:32:51.707Z,3.83
2018-12-29T04:33:51.702Z,3.86
2018-12-29T04:34:51.698Z,3.94
2018-12-29T04:35:51.693Z,3.80
2018-12-29T04:36:51.667Z,3.84
2018-12-29T04:37:51.662Z,3.81
2018-12-29T04:38:51.665Z,3.78
2018-12-29T04:39:51.650Z,3.84
2018-12-29T04:40:51.644Z,3.80
2018-12-29T04:41:51.629Z,3.83
2018-12-29T04:42:51.634Z,3.80
2018-12-29T04:43:51.621Z,3.84
2018-12-29T04:44:51.612Z,3.80
2018-12-29T04:45:51.617Z,3.78
2018-12-29T04:46:51.613Z,3.87
2018-12-29T04:47:51.596Z,3.73
2018-12-29T04:48:51.577Z,3.80
2018-12-29T04:49:51.571Z,3.83
2018-12-29T04:50:51.562Z,3.81
2018-12-29T04:51:51.562Z,3.80
2018-12-29T04:52:51.549Z,3.74
2018-12-29T04:53:51.549Z,3.83
2018-12-29T04:54:51.550Z,3.80
2018-12-29T04:55:51.540Z,3.83
2018-12-29T04:56:51.518Z,3.86
2018-12-29T04:57:51.729Z,3.80
2018-12-29T04:58:51.513Z,3.73
2018-12-29T04:59:51.490Z,3.73
2018-12-29T05:00:51.492Z,3.81
2018-12-29T05:01:51.488Z,3.78
2018-12-29T05:02:51.469Z,3.77
2018-12-29T05:03:51.469Z,3.74
2018-12-29T05:04:51.456Z,3.78
2018-12-29T05:05:51.447Z,3.77
2018-12-29T05:06:51.441Z,3.76
2018-12-29T05:07:51.430Z,3.69
2018-12-29T05:08:51.422Z,3.76
2018-12-29T05:09:51.436Z,3.74
2018-12-29T05:10:51.414Z,3.74
2018-12-29T05:11:51.411Z,3.73
2018-12-29T05:12:51.401Z,3.78
2018-12-29T05:13:51.401Z,3.77
2018-12-29T05:14:51.381Z,3.77
2018-12-29T05:15:51.370Z,3.74
2018-12-29T05:16:51.382Z,3.69
2018-12-29T05:17:51.356Z,3.69
2018-12-29T05:18:51.371Z,3.69
2018-12-29T05:19:51.350Z,3.77
2018-12-29T05:20:51.328Z,3.68
2018-12-29T05:21:51.324Z,3.76
2018-12-29T05:22:51.321Z,3.69
2018-12-29T05:23:51.326Z,3.76
2018-12-29T05:24:51.312Z,3.80
2018-12-29T05:25:51.288Z,3.77
2018-12-29T05:26:51.284Z,3.74
2018-12-29T05:27:51.279Z,3.74
2018-12-29T05:28:51.276Z,3.80
2018-12-29T05:29:51.266Z,3.76
2018-12-29T05:30:51.264Z,3.86
2018-12-29T05:31:51.253Z,3.81
2018-12-29T05:32:51.240Z,3.77
2018-12-29T05:33:51.233Z,3.78
2018-12-29T05:34:51.235Z,3.77
2018-12-29T05:35:51.217Z,3.81
2018-12-29T05:36:51.209Z,3.81
2018-12-29T05:37:51.198Z,3.81
2018-12-29T05:38:51.192Z,3.84
2018-12-29T05:39:51.206Z,3.74
2018-12-29T05:40:51.177Z,3.78
2018-12-29T05:41:51.169Z,3.81
2018-12-29T05:42:51.166Z,3.81
2018-12-29T05:43:51.157Z,3.81
2018-12-29T05:44:51.149Z,3.80
2018-12-29T05:45:51.141Z,3.83
2018-12-29T05:46:51.141Z,3.78
2018-12-29T05:47:51.142Z,3.80
2018-12-29T05:48:51.111Z,3.80
2018-12-29T05:49:51.112Z,3.83
2018-12-29T05:50:51.108Z,3.86
2018-12-29T05:51:51.090Z,3.80
2018-12-29T05:52:51.101Z,3.83
2018-12-29T05:53:51.077Z,3.87
2018-12-29T05:54:51.296Z,3.78
2018-12-29T05:55:51.068Z,3.81
2018-12-29T05:56:51.061Z,3.84
2018-12-29T05:57:51.249Z,3.80
2018-12-29T05:58:51.055Z,3.77
2018-12-29T05:59:51.034Z,3.78
2018-12-29T06:00:51.039Z,3.81
2018-12-29T06:01:51.028Z,3.73
2018-12-29T06:02:51.021Z,3.84
2018-12-29T06:03:51.033Z,3.81
2018-12-29T06:04:50.993Z,3.80
2018-12-29T06:05:50.989Z,3.84
2018-12-29T06:06:50.990Z,3.94
2018-12-29T06:07:50.982Z,3.87
2018-12-29T06:08:50.966Z,3.84
2018-12-29T06:09:50.964Z,3.86
2018-12-29T06:10:50.950Z,3.87
2018-12-29T06:11:50.944Z,3.86
2018-12-29T06:12:50.969Z,3.84
2018-12-29T06:13:50.944Z,3.91
2018-12-29T06:14:50.921Z,3.88
2018-12-29T06:15:50.924Z,3.84
2018-12-29T06:16:50.897Z,3.91
2018-12-29T06:17:50.898Z,3.81
2018-12-29T06:18:50.881Z,3.88
2018-12-29T06:19:50.894Z,3.87
2018-12-29T06:20:50.868Z,3.91
2018-12-29T06:21:50.865Z,3.87
2018-12-29T06:22:50.872Z,3.88
2018-12-29T06:23:50.858Z,3.96
2018-12-29T06:24:50.846Z,3.98
2018-12-29T06:25:50.850Z,3.98
2018-12-29T06:26:50.838Z,4.01
2018-12-29T06:27:50.834Z,3.99
2018-12-29T06:28:50.864Z,3.91
2018-12-29T06:29:50.817Z,3.91
2018-12-29T06:30:50.822Z,3.95
2018-12-29T06:31:50.782Z,3.94
2018-12-29T06:32:50.787Z,3.92
2018-12-29T06:33:50.994Z,4.02
2018-12-29T06:34:50.775Z,3.91
2018-12-29T06:35:50.774Z,3.95
2018-12-29T06:36:50.748Z,3.99
2018-12-29T06:37:50.739Z,3.94
2018-12-29T06:38:50.728Z,3.95
2018-12-29T06:39:50.720Z,4.06
2018-12-29T06:40:50.728Z,3.96
2018-12-29T06:41:50.709Z,4.04
2018-12-29T06:42:50.709Z,3.91
2018-12-29T06:43:50.696Z,3.91
2018-12-29T06:44:50.702Z,4.06
2018-12-29T06:45:50.685Z,3.99
2018-12-29T06:46:50.667Z,4.10
2018-12-29T06:47:50.674Z,3.95
2018-12-29T06:48:50.676Z,3.94
2018-12-29T06:49:50.654Z,3.96
2018-12-29T06:50:50.634Z,3.96
2018-12-29T06:51:50.645Z,3.98
2018-12-29T06:52:50.630Z,3.96
2018-12-29T06:53:50.846Z,4.05
2018-12-29T06:54:50.624Z,4.02
2018-12-29T06:55:50.599Z,3.99
2018-12-29T06:56:50.609Z,4.04
2018-12-29T06:57:50.790Z,4.01
2018-12-29T06:58:50.581Z,4.02
2018-12-29T06:59:50.574Z,4.04
2018-12-29T07:00:50.572Z,4.01
2018-12-29T07:01:50.787Z,4.12
2018-12-29T07:02:50.581Z,4.04
2018-12-29T07:03:50.551Z,4.01
2018-12-29T07:04:50.548Z,4.01
2018-12-29T07:05:50.745Z,4.02
2018-12-29T07:06:50.530Z,4.04
2018-12-29T07:07:50.511Z,4.10
2018-12-29T07:08:50.505Z,4.08
2018-12-29T07:09:50.493Z,4.01
2018-12-29T07:10:50.497Z,4.02
2018-12-29T07:11:50.487Z,4.08
2018-12-29T07:12:50.486Z,4.10
2018-12-29T07:13:50.467Z,4.12
2018-12-29T07:14:50.455Z,4.04
2018-12-29T07:15:50.446Z,4.12
2018-12-29T07:16:50.446Z,4.05
2018-12-29T07:17:50.430Z,4.06
2018-12-29T07:18:50.428Z,4.13
2018-12-29T07:19:50.421Z,4.14
2018-12-29T07:20:50.411Z,4.14
2018-12-29T07:21:50.407Z,4.16
2018-12-29T07:22:50.402Z,4.14
2018-12-29T07:23:50.393Z,4.16
2018-12-29T07:24:50.378Z,4.22
2018-12-29T07:25:50.393Z,4.10
2018-12-29T07:26:50.379Z,4.12
2018-12-29T07:27:50.367Z,4.12
2018-12-29T07:28:50.568Z,4.13
2018-12-29T07:29:50.339Z,4.13
2018-12-29T07:30:50.341Z,4.13
2018-12-29T07:31:50.536Z,4.22
2018-12-29T07:32:50.332Z,4.14
2018-12-29T07:33:50.327Z,4.16
2018-12-29T07:34:50.313Z,4.19
2018-12-29T07:35:50.297Z,4.13
2018-12-29T07:36:50.308Z,4.16
2018-12-29T07:37:50.512Z,4.14
2018-12-29T07:38:50.284Z,4.12
2018-12-29T07:39:50.264Z,4.20
2018-12-29T07:40:50.274Z,4.20
2018-12-29T07:41:50.250Z,4.08
2018-12-29T07:42:50.240Z,4.08
2018-12-29T07:43:50.237Z,4.17
2018-12-29T07:44:50.225Z,4.14
2018-12-29T07:45:50.224Z,4.08
2018-12-29T07:46:50.209Z,4.12
2018-12-29T07:47:50.212Z,4.23
2018-12-29T07:48:50.198Z,4.08
2018-12-29T07:49:50.396Z,4.12
2018-12-29T07:50:50.189Z,4.17
2018-12-29T07:51:50.192Z,4.24
2018-12-29T07:52:50.169Z,4.14
2018-12-29T07:53:50.375Z,4.24
2018-12-29T07:54:50.160Z,4.13
2018-12-29T07:55:50.150Z,4.17
2018-12-29T07:56:50.339Z,4.16
2018-12-29T07:57:50.131Z,4.23
2018-12-29T07:58:50.123Z,4.22
2018-12-29T07:59:50.114Z,4.22
2018-12-29T08:00:50.307Z,4.17
2018-12-29T08:01:50.110Z,4.22
2018-12-29T08:02:50.089Z,4.22
2018-12-29T08:03:50.087Z,4.26
2018-12-29T08:04:50.073Z,4.23
2018-12-29T08:05:50.066Z,4.32
2018-12-29T08:06:50.081Z,4.30
2018-12-29T08:07:50.056Z,4.23
2018-12-29T08:08:50.060Z,4.34
2018-12-29T08:09:50.045Z,4.28
2018-12-29T08:10:50.026Z,4.26
2018-12-29T08:11:50.026Z,4.28
2018-12-29T08:12:50.027Z,4.28
2018-12-29T08:13:50.021Z,4.37
2018-12-29T08:14:50.008Z,4.26
2018-12-29T08:15:49.999Z,4.28
2018-12-29T08:16:56.686Z,4.28
2018-12-29T08:17:49.975Z,4.35
2018-12-29T08:18:49.971Z,4.30
2018-12-29T08:19:49.962Z,4.41
2018-12-29T08:20:49.953Z,4.31
2018-12-29T08:21:49.946Z,4.30
2018-12-29T08:22:49.936Z,4.24
2018-12-29T08:23:49.942Z,4.20
2018-12-29T08:24:49.919Z,4.35
2018-12-29T08:25:49.933Z,4.26
2018-12-29T08:26:49.906Z,4.26
2018-12-29T08:27:49.900Z,4.30
2018-12-29T08:28:49.902Z,4.40
2018-12-29T08:29:49.893Z,4.37
2018-12-29T08:30:49.886Z,4.38
2018-12-29T08:31:49.881Z,4.38
2018-12-29T08:32:49.870Z,4.32
2018-12-29T08:33:49.854Z,4.42
2018-12-29T08:34:49.847Z,4.41
2018-12-29T08:35:49.837Z,4.38
2018-12-29T08:36:49.837Z,4.40
2018-12-29T08:37:49.826Z,4.38
2018-12-29T08:38:49.812Z,4.44
2018-12-29T08:39:49.817Z,4.35
2018-12-29T08:40:49.804Z,4.48
2018-12-29T08:41:49.795Z,4.49
2018-12-29T08:42:49.795Z,4.41
2018-12-29T08:43:49.785Z,4.50
2018-12-29T08:44:49.771Z,4.40
2018-12-29T08:45:49.775Z,4.49
2018-12-29T08:46:49.769Z,4.44
2018-12-29T08:47:49.762Z,4.40
2018-12-29T08:48:49.738Z,4.44
2018-12-29T08:49:49.731Z,4.45
2018-12-29T08:50:49.726Z,4.50
2018-12-29T08:51:49.720Z,4.45
2018-12-29T08:52:49.729Z,4.44
2018-12-29T08:53:49.709Z,4.48
2018-12-29T08:54:49.696Z,4.49
2018-12-29T08:55:49.689Z,4.49
2018-12-29T08:56:49.684Z,4.45
2018-12-29T08:57:49.673Z,4.48
2018-12-29T08:58:49.676Z,4.55
2018-12-29T08:59:49.667Z,4.56
2018-12-29T09:00:49.663Z,4.56
2018-12-29T09:01:49.661Z,4.49
2018-12-29T09:02:49.638Z,4.56
2018-12-29T09:03:49.631Z,4.52
2018-12-29T09:04:49.638Z,4.45
2018-12-29T09:05:49.617Z,4.60
2018-12-29T09:06:49.618Z,4.63
2018-12-29T09:07:49.608Z,4.56
2018-12-29T09:08:49.591Z,4.53
2018-12-29T09:09:49.609Z,4.62
2018-12-29T09:10:49.590Z,4.60
2018-12-29T09:11:49.585Z,4.58
2018-12-29T09:12:49.563Z,4.60
2018-12-29T09:13:49.564Z,4.63
2018-12-29T09:14:49.565Z,4.59
2018-12-29T09:15:49.567Z,4.56
2018-12-29T09:16:49.553Z,4.60
2018-12-29T09:17:49.527Z,4.59
2018-12-29T09:18:49.884Z,4.59
2018-12-29T09:19:49.511Z,4.62
2018-12-29T09:20:49.504Z,4.56
2018-12-29T09:21:49.494Z,4.60
2018-12-29T09:22:49.506Z,4.67
2018-12-29T09:23:49.489Z,4.60
2018-12-29T09:24:49.470Z,4.70
2018-12-29T09:25:49.674Z,4.71
2018-12-29T09:26:49.460Z,4.68
2018-12-29T09:27:49.453Z,4.73
2018-12-29T09:28:49.649Z,4.70
2018-12-29T09:29:49.437Z,4.74
2018-12-29T09:30:49.431Z,4.71
2018-12-29T09:31:49.424Z,4.75
2018-12-29T09:32:49.416Z,4.77
2018-12-29T09:33:49.419Z,4.78
2018-12-29T09:34:49.411Z,4.78
2018-12-29T09:35:49.389Z,4.75
2018-12-29T09:36:49.381Z,4.86
2018-12-29T09:37:49.389Z,4.78
2018-12-29T09:38:49.364Z,4.92
2018-12-29T09:39:49.377Z,4.82
2018-12-29T09:40:49.353Z,4.93
2018-12-29T09:41:49.357Z,4.87
2018-12-29T09:42:49.342Z,4.87
2018-12-29T09:43:49.343Z,4.87
2018-12-29T09:44:49.332Z,4.87
2018-12-29T09:45:49.330Z,4.89
2018-12-29T09:46:49.317Z,4.82
2018-12-29T09:47:49.302Z,4.86
2018-12-29T09:48:49.295Z,4.90
2018-12-29T09:49:49.297Z,4.89
2018-12-29T09:50:49.274Z,4.92
2018-12-29T09:51:49.476Z,4.93
2018-12-29T09:52:49.298Z,4.92
2018-12-29T09:53:49.259Z,4.89
2018-12-29T09:54:49.451Z,4.87
2018-12-29T09:55:49.244Z,4.92
2018-12-29T09:56:49.240Z,4.89
2018-12-29T09:57:49.225Z,4.89
2018-12-29T09:58:49.219Z,4.92
2018-12-29T09:59:49.413Z,4.97
2018-12-29T10:00:49.210Z,4.90
2018-12-29T10:01:49.216Z,4.97
2018-12-29T10:02:49.207Z,4.97
2018-12-29T10:03:49.186Z,4.92
2018-12-29T10:04:49.179Z,5.04
2018-12-29T10:05:49.179Z,5.05
2018-12-29T10:06:49.383Z,4.99
2018-12-29T10:07:49.149Z,5.02
2018-12-29T10:08:49.148Z,5.05
2018-12-29T10:09:49.136Z,5.04
2018-12-29T10:10:49.146Z,5.05
2018-12-29T10:11:49.142Z,5.08
2018-12-29T10:12:49.133Z,5.11
2018-12-29T10:13:49.111Z,5.07
2018-12-29T10:14:49.102Z,5.11
2018-12-29T10:15:49.099Z,5.10
2018-12-29T10:16:49.098Z,5.14
2018-12-29T10:17:49.080Z,5.18
2018-12-29T10:18:49.070Z,5.15
2018-12-29T10:19:49.078Z,5.15
2018-12-29T10:20:49.060Z,5.10
2018-12-29T10:21:49.047Z,5.04
2018-12-29T10:22:49.045Z,5.14
2018-12-29T10:23:49.050Z,5.12
2018-12-29T10:24:49.247Z,5.17
2018-12-29T10:25:49.045Z,5.17
2018-12-29T10:26:49.010Z,5.17
2018-12-29T10:27:49.010Z,5.15
2018-12-29T10:28:49.002Z,5.20
2018-12-29T10:29:48.993Z,5.26
2018-12-29T10:30:48.990Z,5.17
2018-12-29T10:31:48.983Z,5.17
2018-12-29T10:32:49.181Z,5.21
2018-12-29T10:33:48.983Z,5.17
2018-12-29T10:34:48.952Z,5.25
2018-12-29T10:35:48.950Z,5.29
2018-12-29T10:36:48.952Z,5.18
2018-12-29T10:37:48.928Z,5.26
2018-12-29T10:38:48.938Z,5.28
2018-12-29T10:39:48.919Z,5.30
2018-12-29T10:40:48.910Z,5.30
2018-12-29T10:41:48.923Z,5.30
2018-12-29T10:42:48.904Z,5.30
2018-12-29T10:43:48.895Z,5.30
2018-12-29T10:44:48.898Z,5.30
2018-12-29T10:45:48.875Z,5.32
2018-12-29T10:46:48.863Z,5.30
2018-12-29T10:47:48.866Z,5.33
2018-12-29T10:48:48.848Z,5.39
2018-12-29T10:49:48.842Z,5.29
2018-12-29T10:50:48.832Z,5.41
2018-12-29T10:51:48.823Z,5.39
2018-12-29T10:52:48.821Z,5.46
2018-12-29T10:53:48.811Z,5.44
2018-12-29T10:54:48.812Z,5.46
2018-12-29T10:55:48.801Z,5.41
2018-12-29T10:56:48.803Z,5.43
2018-12-29T10:57:48.796Z,5.51
2018-12-29T10:58:48.778Z,5.56
2018-12-29T10:59:48.766Z,5.51
2018-12-29T11:00:48.765Z,5.51
2018-12-29T11:01:48.756Z,5.53
2018-12-29T11:02:48.783Z,5.54
2018-12-29T11:03:48.757Z,5.56
2018-12-29T11:04:48.753Z,5.64
2018-12-29T11:05:48.738Z,5.56
2018-12-29T11:06:48.729Z,5.54
2018-12-29T11:07:48.734Z,5.59
2018-12-29T11:08:48.714Z,5.64
2018-12-29T11:09:48.695Z,5.65
2018-12-29T11:10:48.704Z,5.48
2018-12-29T11:11:48.693Z,5.66
2018-12-29T11:12:48.700Z,5.61
2018-12-29T11:13:48.684Z,5.61
2018-12-29T11:14:48.668Z,5.56
2018-12-29T11:15:48.659Z,5.65
2018-12-29T11:16:48.678Z,5.66
2018-12-29T11:17:48.657Z,5.62
2018-12-29T11:18:48.632Z,5.61
2018-12-29T11:19:48.629Z,5.68
2018-12-29T11:20:48.638Z,5.65
2018-12-29T11:21:48.626Z,5.65
2018-12-29T11:22:48.622Z,5.79
2018-12-29T11:23:48.614Z,5.79
2018-12-29T11:24:48.618Z,5.80
2018-12-29T11:25:48.604Z,5.72
2018-12-29T11:26:48.582Z,5.84
2018-12-29T11:27:48.573Z,5.82
2018-12-29T11:28:48.780Z,5.86
2018-12-29T11:29:48.558Z,5.83
2018-12-29T11:30:48.751Z,5.89
2018-12-29T11:31:48.756Z,5.86
2018-12-29T11:32:48.534Z,5.93
2018-12-29T11:33:48.536Z,5.97
2018-12-29T11:34:48.520Z,5.90
2018-12-29T11:35:48.516Z,5.99
2018-12-29T11:36:48.511Z,6.01
2018-12-29T11:37:48.504Z,6.02
2018-12-29T11:38:48.490Z,6.02
2018-12-29T11:39:48.496Z,6.01
2018-12-29T11:40:48.488Z,6.01
2018-12-29T11:41:48.476Z,5.98
2018-12-29T11:42:48.477Z,6.04
2018-12-29T11:43:48.501Z,6.04
2018-12-29T11:44:48.455Z,5.99
2018-12-29T11:45:48.442Z,6.04
2018-12-29T11:46:48.459Z,5.99
2018-12-29T11:47:50.000Z,6.01
2018-12-29T11:48:48.456Z,5.97
2018-12-29T11:49:48.415Z,6.02
2018-12-29T11:50:48.436Z,6.02
2018-12-29T11:51:48.401Z,6.04
2018-12-29T11:52:48.593Z,6.07
2018-12-29T11:53:48.391Z,6.08
2018-12-29T11:54:48.393Z,6.05
2018-12-29T11:55:48.388Z,6.05
2018-12-29T11:56:48.364Z,6.14
2018-12-29T11:57:48.362Z,6.14
2018-12-29T11:58:48.362Z,6.16
2018-12-29T11:59:48.362Z,6.12
2018-12-29T12:00:48.562Z,6.09
2018-12-29T12:01:48.358Z,6.14
2018-12-29T12:02:48.355Z,6.17
2018-12-29T12:03:48.334Z,6.19
2018-12-29T12:04:48.330Z,6.16
2018-12-29T12:05:48.315Z,6.24
2018-12-29T12:06:48.300Z,6.20
2018-12-29T12:07:48.292Z,6.16
2018-12-29T12:08:48.284Z,6.27
2018-12-29T12:09:48.289Z,6.26
2018-12-29T12:10:48.294Z,6.26
2018-12-29T12:11:48.264Z,6.19
2018-12-29T12:12:48.263Z,6.19
2018-12-29T12:13:48.251Z,6.26
2018-12-29T12:14:48.246Z,6.22
2018-12-29T12:15:48.235Z,6.26
2018-12-29T12:16:48.236Z,6.28
2018-12-29T12:17:48.230Z,6.33
2018-12-29T12:18:48.241Z,6.38
2018-12-29T12:19:48.217Z,6.41
2018-12-29T12:20:48.225Z,6.42
2018-12-29T12:21:48.194Z,6.46
2018-12-29T12:22:48.192Z,6.45
2018-12-29T12:23:48.186Z,6.54
2018-12-29T12:24:48.389Z,6.59
2018-12-29T12:25:48.166Z,6.56
2018-12-29T12:26:48.364Z,6.70
2018-12-29T12:27:48.170Z,6.75
2018-12-29T12:28:48.160Z,6.79
2018-12-29T12:29:48.140Z,6.78
2018-12-29T12:30:48.146Z,6.78
2018-12-29T12:31:48.125Z,6.77
2018-12-29T12:32:48.329Z,6.74
2018-12-29T12:33:48.129Z,6.81
2018-12-29T12:34:48.124Z,6.75
2018-12-29T12:35:48.105Z,6.78
2018-12-29T12:36:48.105Z,6.89
2018-12-29T12:37:48.102Z,6.84
2018-12-29T12:38:48.086Z,6.85
2018-12-29T12:39:48.091Z,6.84
2018-12-29T12:40:48.069Z,6.85
2018-12-29T12:41:48.067Z,6.85
2018-12-29T12:42:48.273Z,6.88
2018-12-29T12:43:48.052Z,6.89
2018-12-29T12:44:48.047Z,6.89
2018-12-29T12:45:48.250Z,6.92
2018-12-29T12:46:48.052Z,6.87
2018-12-29T12:47:48.026Z,6.88
2018-12-29T12:48:48.019Z,6.97
2018-12-29T12:49:48.017Z,6.97
2018-12-29T12:50:48.007Z,6.96
2018-12-29T12:51:48.005Z,6.89
2018-12-29T12:52:48.007Z,6.89
2018-12-29T12:53:47.987Z,7.02
2018-12-29T12:54:48.192Z,7.02
2018-12-29T12:55:47.972Z,7.02
2018-12-29T12:56:48.166Z,7.02
2018-12-29T12:57:48.164Z,7.06
2018-12-29T12:58:47.952Z,7.03
2018-12-29T12:59:48.149Z,7.03
2018-12-29T13:00:47.954Z,7.00
2018-12-29T13:01:47.935Z,7.00
2018-12-29T13:02:47.930Z,7.07
2018-12-29T13:03:47.915Z,7.10
2018-12-29T13:04:48.134Z,7.02
2018-12-29T13:05:48.116Z,7.11
2018-12-29T13:06:47.894Z,7.05
2018-12-29T13:07:47.904Z,7.06
2018-12-29T13:08:47.900Z,7.07
2018-12-29T13:09:47.880Z,7.05
2018-12-29T13:10:47.879Z,7.05
2018-12-29T13:11:47.868Z,7.10
2018-12-29T13:12:47.857Z,7.02
2018-12-29T13:13:47.855Z,7.10
2018-12-29T13:14:48.050Z,7.07
2018-12-29T13:15:47.838Z,7.07
2018-12-29T13:16:47.835Z,7.13
2018-12-29T13:17:47.830Z,7.10
2018-12-29T13:18:47.822Z,7.10